createdAt,value
2023-02-08T00:01:45.357Z,33.80
2023-02-08T00:04:12.406Z,35.70
2023-02-08T00:06:41.823Z,36.10
2023-02-08T00:09:11.278Z,37.00
2023-02-08T00:11:38.514Z,38.30
2023-02-08T00:14:05.598Z,37.80
2023-02-08T00:16:33.022Z,32.30
2023-02-08T00:19:00.135Z,36.00
2023-02-08T00:21:47.784Z,37.00
2023-02-08T00:24:14.784Z,36.30
2023-02-08T00:26:44.701Z,33.30
2023-02-08T00:29:14.518Z,30.10
2023-02-08T00:31:43.769Z,29.70
2023-02-08T00:34:11.082Z,31.20
2023-02-08T00:36:46.858Z,34.30
2023-02-08T00:39:14.214Z,35.90
2023-02-08T00:41:51.619Z,33.60
2023-02-08T00:44:18.938Z,27.70
2023-02-08T00:46:46.055Z,36.10
2023-02-08T00:49:13.789Z,33.40
2023-02-08T00:51:40.788Z,32.10
2023-02-08T00:54:07.952Z,34.50
2023-02-08T00:56:38.379Z,27.60
2023-02-08T00:59:05.359Z,36.60
2023-02-08T01:01:35.900Z,35.30
2023-02-08T01:04:10.800Z,38.50
2023-02-08T01:06:38.022Z,33.60
2023-02-08T01:09:05.206Z,37.10
2023-02-08T01:11:34.814Z,35.90
2023-02-08T01:14:01.905Z,35.90
2023-02-08T01:16:31.494Z,34.30
2023-02-08T01:19:03.340Z,33.20
2023-02-08T01:21:32.838Z,39.30
2023-02-08T01:24:02.618Z,37.20
2023-02-08T01:26:50.173Z,37.50
2023-02-08T01:29:17.537Z,35.00
2023-02-08T01:31:54.745Z,36.80
2023-02-08T01:34:24.918Z,34.20
2023-02-08T01:36:51.992Z,32.50
2023-02-08T01:39:21.358Z,38.00
2023-02-08T01:41:48.702Z,38.70
2023-02-08T01:44:50.847Z,34.50
2023-02-08T01:47:18.526Z,36.10
2023-02-08T01:49:45.764Z,33.10
2023-02-08T01:52:15.800Z,33.40
2023-02-08T01:54:47.559Z,32.90
2023-02-08T01:57:33.503Z,34.80
2023-02-08T02:00:03.105Z,33.30
2023-02-08T02:02:41.992Z,34.20
2023-02-08T02:05:12.761Z,33.00
2023-02-08T02:07:40.612Z,39.40
2023-02-08T02:10:13.161Z,33.50
2023-02-08T02:12:42.774Z,37.80
2023-02-08T02:15:13.139Z,35.80
2023-02-08T02:17:41.516Z,39.10
2023-02-08T02:20:15.768Z,36.30
2023-02-08T02:23:20.409Z,36.20
2023-02-08T02:26:12.655Z,34.30
2023-02-08T02:29:01.931Z,36.70
2023-02-08T02:32:01.031Z,38.30
2023-02-08T02:34:39.784Z,38.40
2023-02-08T02:37:20.725Z,37.90
2023-02-08T02:39:56.625Z,37.40
2023-02-08T02:42:46.194Z,38.00
2023-02-08T02:45:28.071Z,38.10
2023-02-08T02:48:03.736Z,34.90
2023-02-08T02:50:38.385Z,31.50
2023-02-08T02:53:13.938Z,37.60
2023-02-08T02:56:05.966Z,34.60
2023-02-08T02:58:37.554Z,41.70
2023-02-08T03:01:04.982Z,35.10
2023-02-08T03:03:35.975Z,38.40
2023-02-08T03:06:08.900Z,37.80
2023-02-08T03:09:01.997Z,36.20
2023-02-08T03:11:42.660Z,33.40
2023-02-08T03:14:29.255Z,33.50
2023-02-08T03:17:13.954Z,34.00
2023-02-08T03:19:48.031Z,35.00
2023-02-08T03:22:21.359Z,34.10
2023-02-08T03:24:56.124Z,31.40
2023-02-08T03:27:29.836Z,35.60
2023-02-08T03:30:02.465Z,33.90
2023-02-08T03:32:41.904Z,33.20
2023-02-08T03:35:33.999Z,29.90
2023-02-08T03:38:06.148Z,30.40
2023-02-08T03:40:43.809Z,33.60
2023-02-08T03:43:19.760Z,34.90
2023-02-08T03:46:03.300Z,34.20
2023-02-08T03:48:55.444Z,34.20
2023-02-08T03:51:44.863Z,34.80
2023-02-08T03:54:25.183Z,32.00
2023-02-08T03:57:11.615Z,33.70
2023-02-08T03:59:42.131Z,34.40
2023-02-08T04:02:32.709Z,34.80
2023-02-08T04:05:21.002Z,35.40
2023-02-08T04:07:47.923Z,32.80
2023-02-08T04:10:15.160Z,38.00
2023-02-08T04:12:53.202Z,37.00
2023-02-08T04:15:20.714Z,41.00
2023-02-08T04:17:50.806Z,37.30
2023-02-08T04:20:20.685Z,36.50
2023-02-08T04:22:56.841Z,31.40
2023-02-08T04:25:24.050Z,34.70
2023-02-08T04:27:51.455Z,37.70
2023-02-08T04:30:18.790Z,36.10
2023-02-08T04:32:45.959Z,38.10
2023-02-08T04:35:13.058Z,37.30
2023-02-08T04:37:40.153Z,35.80
2023-02-08T04:40:13.748Z,38.90
2023-02-08T04:42:43.400Z,40.00
2023-02-08T04:45:11.701Z,37.80
2023-02-08T04:47:59.260Z,36.60
2023-02-08T04:50:46.683Z,37.70
2023-02-08T04:53:21.418Z,36.70
2023-02-08T04:55:48.596Z,37.90
2023-02-08T04:58:23.986Z,35.70
2023-02-08T05:00:52.444Z,39.00
2023-02-08T05:03:19.656Z,36.60
2023-02-08T05:05:46.827Z,36.20
2023-02-08T05:08:13.902Z,37.70
2023-02-08T05:10:46.963Z,31.40
2023-02-08T05:13:16.946Z,36.60
2023-02-08T05:15:44.076Z,35.10
2023-02-08T05:18:11.109Z,33.00
2023-02-08T05:20:41.051Z,36.90
2023-02-08T05:23:08.580Z,37.80
2023-02-08T05:25:40.563Z,37.00
2023-02-08T05:28:14.973Z,37.20
2023-02-08T05:30:44.608Z,38.10
2023-02-08T05:33:22.782Z,41.40
2023-02-08T05:35:50.071Z,42.90
2023-02-08T05:38:17.088Z,39.60
2023-02-08T05:40:47.245Z,39.00
2023-02-08T05:43:18.565Z,39.50
2023-02-08T05:45:45.527Z,42.70
2023-02-08T05:48:12.896Z,42.80
2023-02-08T05:50:40.149Z,40.20
2023-02-08T05:53:09.979Z,42.70
2023-02-08T05:55:37.093Z,40.10
2023-02-08T05:58:09.373Z,48.00
2023-02-08T06:00:38.842Z,43.70
2023-02-08T06:03:09.288Z,46.30
2023-02-08T06:05:40.565Z,47.90
2023-02-08T06:08:08.126Z,43.40
2023-02-08T06:10:35.457Z,42.10
2023-02-08T06:13:23.149Z,42.80
2023-02-08T06:16:11.138Z,43.20
2023-02-08T06:18:38.433Z,46.30
2023-02-08T06:21:08.592Z,43.60
2023-02-08T06:23:35.622Z,44.40
2023-02-08T06:26:03.964Z,44.00
2023-02-08T06:28:31.211Z,47.90
2023-02-08T06:31:00.840Z,44.80
2023-02-08T06:33:27.787Z,45.70
2023-02-08T06:35:55.556Z,46.20
2023-02-08T06:38:22.920Z,46.70
2023-02-08T06:40:50.978Z,47.40
2023-02-08T06:43:21.122Z,48.40
2023-02-08T06:45:49.118Z,54.80
2023-02-08T06:48:16.581Z,50.90
2023-02-08T06:50:46.541Z,53.20
2023-02-08T06:53:13.564Z,45.60
2023-02-08T06:55:48.681Z,49.10
2023-02-08T06:58:15.733Z,50.20
2023-02-08T07:00:50.517Z,54.20
2023-02-08T07:03:18.609Z,52.40
2023-02-08T07:06:03.425Z,56.70
2023-02-08T07:08:34.300Z,57.40
2023-02-08T07:11:01.606Z,54.50
2023-02-08T07:13:33.672Z,55.80
2023-02-08T07:16:00.718Z,50.80
2023-02-08T07:18:27.721Z,52.80
2023-02-08T07:20:54.850Z,50.50
2023-02-08T07:23:35.755Z,49.00
2023-02-08T07:26:05.682Z,44.90
2023-02-08T07:28:52.962Z,44.60
2023-02-08T07:31:20.229Z,46.00
2023-02-08T07:33:59.768Z,39.20
2023-02-08T07:36:27.056Z,41.00
2023-02-08T07:38:54.044Z,39.10
2023-02-08T07:41:23.663Z,44.20
2023-02-08T07:46:36.566Z,37.60
2023-02-08T07:49:03.793Z,35.20
2023-02-08T07:51:42.120Z,33.70
2023-02-08T07:54:09.181Z,38.10
2023-02-08T07:56:36.183Z,45.90
2023-02-08T07:59:03.436Z,41.20
2023-02-08T08:01:30.387Z,40.00
2023-02-08T08:03:57.435Z,39.40
2023-02-08T08:06:25.156Z,37.40
2023-02-08T08:08:55.286Z,36.80
2023-02-08T08:11:23.051Z,36.60
2023-02-08T08:14:10.721Z,40.90
2023-02-08T08:16:47.959Z,39.20
2023-02-08T08:19:17.555Z,38.30
2023-02-08T08:21:44.519Z,40.10
2023-02-08T08:24:20.631Z,41.00
2023-02-08T08:26:50.390Z,46.10
2023-02-08T08:29:17.722Z,45.40
2023-02-08T08:31:54.862Z,43.80
2023-02-08T08:34:24.417Z,49.20
2023-02-08T08:36:54.741Z,44.90
2023-02-08T08:39:21.840Z,44.20
2023-02-08T08:41:49.075Z,46.50
2023-02-08T08:44:16.226Z,47.60
2023-02-08T08:46:45.461Z,46.80
2023-02-08T08:49:33.207Z,49.20
2023-02-08T08:52:00.308Z,51.20
2023-02-08T08:54:27.325Z,46.80
2023-02-08T08:56:54.189Z,51.30
2023-02-08T08:59:24.051Z,51.00
2023-02-08T09:02:05.480Z,51.60
2023-02-08T09:04:42.192Z,51.50
2023-02-08T09:07:12.459Z,54.20
2023-02-08T09:09:49.524Z,48.50
2023-02-08T09:12:27.105Z,51.20
2023-02-08T09:14:57.814Z,56.00
2023-02-08T09:17:38.179Z,47.60
2023-02-08T09:20:16.930Z,52.20
2023-02-08T09:22:46.407Z,51.10
2023-02-08T09:25:33.916Z,53.70
2023-02-08T09:28:21.067Z,48.40
2023-02-08T09:30:48.555Z,49.50
2023-02-08T09:33:15.693Z,51.00
2023-02-08T09:35:55.381Z,48.10
2023-02-08T09:38:36.858Z,48.60
2023-02-08T09:41:36.922Z,48.30
2023-02-08T09:44:16.968Z,46.90
2023-02-08T09:46:58.689Z,45.20
2023-02-08T09:49:30.847Z,44.90
2023-02-08T09:52:02.369Z,48.90
2023-02-08T09:54:46.211Z,47.80
2023-02-08T09:57:29.739Z,44.40
2023-02-08T10:00:01.581Z,48.70
2023-02-08T10:02:35.321Z,47.30
2023-02-08T10:05:21.436Z,51.60
2023-02-08T10:07:53.459Z,54.20
2023-02-08T10:10:40.600Z,46.80
2023-02-08T10:13:41.157Z,49.10
2023-02-08T10:16:34.361Z,48.90
2023-02-08T10:19:09.063Z,44.60
2023-02-08T10:22:00.238Z,42.80
2023-02-08T10:25:28.584Z,44.10
2023-02-08T10:28:15.872Z,43.10
2023-02-08T10:30:54.107Z,47.50
2023-02-08T10:33:49.371Z,45.80
2023-02-08T10:36:21.514Z,45.60
2023-02-08T10:38:51.322Z,42.80
2023-02-08T10:41:34.701Z,46.90
2023-02-08T10:44:15.473Z,40.60
2023-02-08T10:47:14.637Z,43.30
2023-02-08T10:49:51.644Z,41.00
2023-02-08T10:52:18.967Z,41.80
2023-02-08T10:54:58.802Z,39.10
2023-02-08T10:57:49.779Z,42.90
2023-02-08T11:00:26.871Z,38.00
2023-02-08T11:02:57.162Z,36.40
2023-02-08T11:05:35.089Z,40.40
2023-02-08T11:08:17.885Z,33.80
2023-02-08T11:10:56.316Z,36.10
2023-02-08T11:13:45.607Z,37.10
2023-02-08T11:16:26.677Z,39.80
2023-02-08T11:19:07.939Z,42.60
2023-02-08T11:21:57.259Z,46.60
2023-02-08T11:24:36.034Z,39.80
2023-02-08T11:27:34.261Z,37.20
2023-02-08T11:30:24.593Z,43.80
2023-02-08T11:33:09.327Z,39.90
2023-02-08T11:35:37.435Z,35.40
2023-02-08T11:38:27.556Z,34.80
2023-02-08T11:41:00.631Z,27.80
2023-02-08T11:43:32.480Z,17.20
2023-02-08T11:46:02.029Z,19.00
2023-02-08T11:48:53.860Z,18.20
2023-02-08T11:51:41.752Z,17.50
2023-02-08T11:54:42.102Z,12.00
2023-02-08T11:57:19.315Z,13.90
2023-02-08T11:59:53.533Z,15.20
2023-02-08T12:02:39.128Z,11.10
2023-02-08T12:05:15.227Z,13.80
2023-02-08T12:08:12.687Z,16.10
2023-02-08T12:11:09.412Z,20.90
2023-02-08T12:16:50.678Z,18.40
2023-02-08T12:20:18.906Z,16.50
2023-02-08T12:22:55.575Z,17.00
2023-02-08T12:25:35.302Z,15.60
2023-02-08T12:28:11.396Z,13.90
2023-02-08T12:30:46.862Z,12.60
2023-02-08T12:33:42.923Z,12.50
2023-02-08T12:36:32.855Z,10.50
2023-02-08T12:39:43.415Z,9.90
2023-02-08T12:42:32.475Z,9.20
2023-02-08T12:45:17.618Z,7.70
2023-02-08T12:48:05.241Z,8.90
2023-02-08T12:50:54.265Z,7.90
2023-02-08T12:53:34.189Z,7.60
2023-02-08T12:56:09.260Z,6.70
2023-02-08T12:59:01.806Z,6.40
2023-02-08T13:01:38.860Z,7.50
2023-02-08T13:04:12.031Z,6.70
2023-02-08T13:06:53.275Z,6.00
2023-02-08T13:09:41.873Z,6.70
2023-02-08T13:12:22.966Z,7.70
2023-02-08T13:14:55.002Z,8.30
2023-02-08T13:17:25.838Z,6.80
2023-02-08T13:20:17.214Z,6.50
2023-02-08T13:22:57.843Z,5.80
2023-02-08T13:25:30.445Z,5.40
2023-02-08T13:28:01.073Z,6.70
2023-02-08T13:30:28.814Z,7.00
2023-02-08T13:32:59.636Z,7.80
2023-02-08T13:35:53.186Z,9.50
2023-02-08T13:38:32.832Z,6.60
2023-02-08T13:41:18.707Z,11.10
2023-02-08T13:43:50.980Z,9.30
2023-02-08T13:46:46.089Z,10.20
2023-02-08T13:49:44.907Z,9.00
2023-02-08T13:52:53.692Z,9.80
2023-02-08T13:55:53.379Z,8.60
2023-02-08T13:59:04.514Z,12.70
2023-02-08T14:01:33.527Z,8.70
2023-02-08T14:04:39.077Z,9.70
2023-02-08T14:07:28.791Z,8.60
2023-02-08T14:10:23.617Z,12.30
2023-02-08T14:12:58.490Z,12.00
2023-02-08T14:15:46.652Z,9.50
2023-02-08T14:18:26.855Z,11.00
2023-02-08T14:21:06.580Z,10.50
2023-02-08T14:23:40.211Z,14.20
2023-02-08T14:26:20.821Z,11.40
2023-02-08T14:28:55.572Z,12.90
2023-02-08T14:31:24.182Z,14.50
2023-02-08T14:33:56.984Z,12.50
2023-02-08T14:36:36.536Z,12.30
2023-02-08T14:39:29.072Z,15.60
2023-02-08T14:42:03.937Z,13.90
2023-02-08T14:45:04.558Z,17.30
2023-02-08T14:48:19.186Z,13.00
2023-02-08T14:51:04.078Z,13.20
2023-02-08T14:53:54.475Z,13.30
2023-02-08T14:56:25.724Z,14.70
2023-02-08T14:58:56.623Z,13.50
2023-02-08T15:01:33.999Z,16.80
2023-02-08T15:04:03.309Z,16.10
2023-02-08T15:06:58.365Z,18.30
2023-02-08T15:09:28.509Z,20.80
2023-02-08T15:12:06.844Z,20.30
2023-02-08T15:14:41.191Z,19.80
2023-02-08T15:17:28.623Z,25.50
2023-02-08T15:19:56.840Z,19.80
2023-02-08T15:22:35.741Z,23.10
2023-02-08T15:25:22.858Z,20.00
2023-02-08T15:27:51.856Z,19.90
2023-02-08T15:30:38.081Z,18.60
2023-02-08T15:33:11.643Z,18.10
2023-02-08T15:35:39.332Z,21.30
2023-02-08T15:38:13.178Z,21.30
2023-02-08T15:41:08.957Z,21.50
2023-02-08T15:43:37.327Z,19.80
2023-02-08T15:46:24.792Z,19.00
2023-02-08T15:48:56.908Z,19.20
2023-02-08T15:51:44.617Z,23.40
2023-02-08T15:54:22.423Z,26.70
2023-02-08T15:56:55.178Z,26.10
2023-02-08T15:59:27.191Z,24.80
2023-02-08T16:01:59.641Z,24.60
2023-02-08T16:04:27.332Z,25.10
2023-02-08T16:07:04.846Z,25.00
2023-02-08T16:09:31.873Z,30.20
2023-02-08T16:12:01.710Z,28.50
2023-02-08T16:14:47.203Z,32.80
2023-02-08T16:17:39.646Z,31.80
2023-02-08T16:20:32.522Z,31.70
2023-02-08T16:23:26.840Z,29.10
2023-02-08T16:25:54.176Z,27.80
2023-02-08T16:28:30.736Z,30.20
2023-02-08T16:31:02.991Z,29.60
2023-02-08T16:33:39.702Z,34.00
2023-02-08T16:36:07.099Z,39.60
2023-02-08T16:38:35.247Z,42.40
2023-02-08T16:41:15.151Z,36.90
2023-02-08T16:43:44.067Z,28.60
2023-02-08T16:46:27.819Z,34.80
2023-02-08T16:48:57.009Z,29.60
2023-02-08T16:51:27.126Z,33.00
2023-02-08T16:53:57.858Z,29.70
2023-02-08T16:56:25.480Z,28.30
2023-02-08T16:59:13.743Z,35.00
2023-02-08T17:01:44.201Z,42.60
2023-02-08T17:04:30.851Z,42.60
2023-02-08T17:06:57.912Z,35.00
2023-02-08T17:09:24.827Z,41.80
2023-02-08T17:11:52.014Z,40.10
2023-02-08T17:14:19.000Z,42.10
2023-02-08T17:16:46.358Z,38.30
2023-02-08T17:19:18.863Z,36.50
2023-02-08T17:21:48.551Z,42.90
2023-02-08T17:24:17.378Z,39.10
2023-02-08T17:26:46.207Z,40.30
2023-02-08T17:29:14.033Z,37.10
2023-02-08T17:31:41.266Z,32.30
2023-02-08T17:34:08.636Z,36.10
2023-02-08T17:36:46.533Z,40.20
2023-02-08T17:39:15.335Z,37.10
2023-02-08T17:41:42.706Z,54.70
2023-02-08T17:44:11.061Z,47.10
2023-02-08T17:46:37.985Z,50.30
2023-02-08T17:49:05.051Z,43.30
2023-02-08T17:51:33.266Z,44.20
2023-02-08T17:54:11.387Z,48.70
2023-02-08T17:56:38.381Z,48.50
2023-02-08T17:59:05.606Z,52.20
2023-02-08T18:01:33.410Z,54.70
2023-02-08T18:04:01.977Z,52.40
2023-02-08T18:06:29.001Z,57.10
2023-02-08T18:08:56.794Z,55.40
2023-02-08T18:11:24.228Z,62.80
2023-02-08T18:13:53.410Z,59.00
2023-02-08T18:16:23.519Z,70.90
2023-02-08T18:18:51.041Z,59.20
2023-02-08T18:21:20.082Z,62.80
2023-02-08T18:23:47.814Z,57.50
2023-02-08T18:26:17.268Z,54.40
2023-02-08T18:28:44.912Z,55.70
2023-02-08T18:31:14.717Z,57.10
2023-02-08T18:33:42.386Z,56.70
2023-02-08T18:36:13.922Z,56.30
2023-02-08T18:38:46.277Z,60.50
2023-02-08T18:41:34.204Z,60.30
2023-02-08T18:44:02.644Z,62.80
2023-02-08T18:46:30.819Z,63.50
2023-02-08T18:48:58.334Z,61.40
2023-02-08T18:51:26.788Z,59.30
2023-02-08T18:53:55.959Z,63.50
2023-02-08T18:56:25.341Z,69.90
2023-02-08T18:58:53.703Z,69.70
2023-02-08T19:01:22.957Z,70.90
2023-02-08T19:03:52.004Z,70.40
2023-02-08T19:06:22.815Z,59.30
2023-02-08T19:08:51.679Z,62.20
2023-02-08T19:11:24.141Z,63.00
2023-02-08T19:13:52.074Z,63.00
2023-02-08T19:16:33.606Z,62.70
2023-02-08T19:19:01.246Z,60.30
2023-02-08T19:24:04.582Z,54.50
2023-02-08T19:26:34.007Z,56.80
2023-02-08T19:29:06.750Z,59.10
2023-02-08T19:31:34.501Z,58.20
2023-02-08T19:34:02.639Z,59.50
2023-02-08T19:36:31.620Z,58.20
2023-02-08T19:39:00.335Z,65.60
2023-02-08T19:41:31.023Z,57.40
2023-02-08T19:44:01.315Z,60.50
2023-02-08T19:46:32.963Z,64.10
2023-02-08T19:49:03.454Z,60.20
2023-02-08T19:51:37.236Z,61.30
2023-02-08T19:54:07.310Z,58.80
2023-02-08T19:56:40.173Z,64.80
2023-02-08T19:59:10.819Z,57.70
2023-02-08T20:01:38.028Z,63.60
2023-02-08T20:04:06.894Z,58.10
2023-02-08T20:06:36.284Z,59.60
2023-02-08T20:09:04.056Z,53.80
2023-02-08T20:11:45.128Z,58.50
2023-02-08T20:14:21.260Z,56.00
2023-02-08T20:16:51.214Z,59.50
2023-02-08T20:19:18.575Z,63.80
2023-02-08T20:21:48.963Z,57.50
2023-02-08T20:24:36.318Z,61.60
2023-02-08T20:27:03.261Z,61.60
2023-02-08T20:29:33.504Z,64.90
2023-02-08T20:32:00.778Z,62.60
2023-02-08T20:34:30.569Z,61.30
2023-02-08T20:37:11.659Z,69.60
2023-02-08T20:39:39.284Z,65.50
2023-02-08T20:42:07.073Z,72.60
2023-02-08T20:44:43.327Z,74.80
2023-02-08T20:47:10.803Z,79.40
2023-02-08T20:49:38.906Z,79.90
2023-02-08T20:52:06.424Z,85.40
2023-02-08T20:54:33.537Z,83.00
2023-02-08T20:57:03.655Z,87.10
2023-02-08T20:59:30.892Z,84.70
2023-02-08T21:02:01.076Z,85.50
2023-02-08T21:04:28.061Z,82.20
2023-02-08T21:06:58.225Z,89.40
2023-02-08T21:09:25.661Z,92.40
2023-02-08T21:11:53.387Z,88.60
2023-02-08T21:14:23.563Z,80.00
2023-02-08T21:16:52.890Z,86.60
2023-02-08T21:19:32.337Z,82.00
2023-02-08T21:22:02.205Z,76.90
2023-02-08T21:24:40.524Z,76.30
2023-02-08T21:27:07.817Z,76.40
2023-02-08T21:29:34.785Z,76.90
2023-02-08T21:32:02.089Z,85.40
2023-02-08T21:34:39.226Z,86.20
2023-02-08T21:37:06.312Z,84.40
2023-02-08T21:39:33.260Z,86.20
2023-02-08T21:42:02.782Z,79.90
2023-02-08T21:44:39.895Z,83.30
2023-02-08T21:47:07.124Z,83.80
2023-02-08T21:49:51.881Z,85.00
2023-02-08T21:52:47.851Z,80.60
2023-02-08T21:55:15.118Z,83.70
2023-02-08T21:57:42.194Z,85.80
2023-02-08T22:00:20.514Z,85.90
2023-02-08T22:02:47.546Z,84.40
2023-02-08T22:05:19.658Z,82.30
2023-02-08T22:07:50.429Z,82.30
2023-02-08T22:10:20.365Z,79.10
2023-02-08T22:12:48.696Z,81.30
2023-02-08T22:15:18.404Z,81.50
2023-02-08T22:17:46.432Z,80.90
2023-02-08T22:20:15.119Z,77.70
2023-02-08T22:23:03.432Z,81.80
2023-02-08T22:25:50.700Z,78.40
2023-02-08T22:28:17.729Z,88.80
2023-02-08T22:30:48.003Z,84.70
2023-02-08T22:33:15.448Z,78.50
2023-02-08T22:35:42.597Z,77.70
2023-02-08T22:38:09.678Z,77.40
2023-02-08T22:40:36.610Z,79.70
2023-02-08T22:43:03.754Z,79.00
2023-02-08T22:45:31.041Z,73.10
2023-02-08T22:47:58.225Z,73.30
2023-02-08T22:50:27.563Z,71.60
2023-02-08T22:52:54.684Z,72.00
2023-02-08T22:55:24.851Z,72.70
2023-02-08T22:57:51.791Z,71.10
2023-02-08T23:00:20.932Z,71.70
2023-02-08T23:02:47.933Z,74.50
2023-02-08T23:05:15.454Z,73.00
2023-02-08T23:07:42.367Z,81.50
2023-02-08T23:10:13.531Z,78.70
2023-02-08T23:12:40.635Z,75.80
2023-02-08T23:15:28.093Z,77.00
2023-02-08T23:17:55.306Z,75.90
2023-02-08T23:20:22.526Z,77.50
2023-02-08T23:22:49.824Z,84.60
2023-02-08T23:25:16.997Z,79.50
2023-02-08T23:27:44.316Z,80.50
2023-02-08T23:30:12.919Z,83.20
2023-02-08T23:32:42.481Z,82.60
2023-02-08T23:35:11.373Z,77.50
2023-02-08T23:37:38.849Z,84.50
2023-02-08T23:40:06.906Z,84.30
2023-02-08T23:42:34.051Z,90.60
2023-02-08T23:45:02.484Z,85.80
2023-02-08T23:47:30.917Z,90.50
2023-02-08T23:50:01.321Z,90.00
2023-02-08T23:52:28.350Z,96.10
2023-02-08T23:54:55.591Z,93.70
2023-02-08T23:57:25.972Z,91.20
2023-02-08T23:59:53.002Z,93.00
